Tropical Cyclones
[Index]
Main Index Home Page Stock Weather Photos Extreme Storms Discussion Storm News and Storm Chasing Reports Tropical Cyclones / Hurricanes / Typhoons Weather Data and Links Wild Fires / Bushfires Weather Observation Techniques Weather Picture Catalogue Tornado Pictures and Reports Stock Video Footage and DVDs for sale
Season 2003-2004 Tropical Cyclone FAY Track Map
Season 2003-2004 Summaries (Operational Data): [AU] [SIO] [SPAC] [SH]
<<- Previous TC | 2003-2004 Season | Next TC ->>

click for intensity scale information  Lat/long Grid: Show Hide

 Date Labels: Show Hide

Operational Tropical Cyclone Data : JTWC Advisories

Name: FAY
Number: 0418

14 Mar 2004 05:00 UTC to 28 Mar 2004 10:00 UTC

    date/time    lat    long     hPa   cat  kts
2004-03-14 05   10.5   135.5    1002         25          
2004-03-14 13   10.6   135.0    1002         25          
2004-03-14 18   10.0   135.2    1001         25          
2004-03-15 00   10.5   134.5    1000         25          
2004-03-15 06   10.5   133.0     998         25          
2004-03-15 12   10.5   131.7     998         30          
2004-03-15 18   10.7   130.6     997         30          
2004-03-16 00   11.3   129.4     997         30          
2004-03-16 06   11.6   128.5     996         30          
2004-03-16 12   11.7   127.9     995    1    35          
2004-03-16 18   11.8   127.6     992    1    40          
2004-03-17 00   12.1   127.9     992    1    40          
2004-03-17 06   12.4   127.4     990    1    40          
2004-03-17 12   12.7   127.1     985    1    45          
2004-03-17 18   12.8   126.8     980    2    50          
2004-03-18 00   13.0   126.8     978    2    55          
2004-03-18 06   13.1   126.7     976    2    60          
2004-03-18 12   13.2   126.6     972    3    65          
2004-03-18 18   13.2   125.9     970    3    70          
2004-03-19 00   12.6   125.6     964    3    70          
2004-03-19 04   12.7   125.5     964    3    70          
2004-03-19 10   12.9   125.2     955    3    80          
2004-03-19 16   13.1   124.9     955    3    80          
2004-03-19 22   13.2   124.5     950    3    80          
2004-03-20 04   13.0   124.7     950    3    80          
2004-03-20 10   13.2   124.5     945    3    85          
2004-03-20 16   13.4   124.0     945    3    85          
2004-03-20 22   13.5   123.3     935    4    90          
2004-03-21 04   13.5   122.9     935    4    90          
2004-03-21 10   14.1   122.4     910    5   110          
2004-03-21 16   14.1   121.5     910    5   115          
2004-03-21 22   14.2   121.1     920    4   105          
2004-03-22 04   14.0   120.7     925    4   100          
2004-03-22 10   14.2   120.7     925    4   100          
2004-03-22 16   14.3   120.2     920    4   105          
2004-03-22 22   14.4   120.2     930    4   100          
2004-03-23 04   14.2   120.3     935    4    95          
2004-03-23 10   14.5   120.9     950    3    80          
2004-03-23 16   15.0   120.9     950    3    80          
2004-03-23 22   15.3   121.2     970    2    60          
2004-03-24 04   15.6   121.5     970    2    60          
2004-03-24 10   16.2   121.7     970    2    60          
2004-03-24 16   16.7   121.7     960    3    75          
2004-03-24 22   17.1   121.7     955    3    80          
2004-03-25 04   17.6   121.4     955    3    75          
2004-03-25 10   18.0   120.9     960    3    70          
2004-03-25 16   18.0   120.4     960    3    70          
2004-03-25 22   18.1   120.2     960    3    70          
2004-03-26 04   18.4   120.0     960    3    70          
2004-03-26 10   18.9   119.9     945    3    85          
2004-03-26 16   19.2   120.0     940    4    90          
2004-03-26 22   19.6   120.1     940    4    90          
2004-03-27 04   20.3   120.1     950    3    80          
2004-03-27 10   20.9   120.1     970    3    65          
2004-03-27 16   21.1   120.6     980    2    50          
2004-03-27 22   21.4   120.5     980    2    50          
2004-03-28 04   21.5   120.8     988    1    45          
2004-03-28 10   21.6   121.1     998         30          
Winds are 10-min average.

Tropical cyclone tracks developed by Michael Bath using operational warnings and advisories and Google Maps.


[Australian Severe Weather index] [Copyright Notice] [Email Contacts] [Search This Site] [Privacy Policy]
Document: tropical_cyclone_fay.htm Updated: 28 May 2013